Time;durP1;ratioP1;P1;durP2;ratioP2;P2;SDS_P1;SDS_P2;PMS_P1;PMS_P2;Temp;Humidity;BMP_temperature;BMP_pressure;BME280_temperature;BME280_humidity;BME280_pressure;Samples;Min_cycle;Max_cycle;Signal;HPM_P1;HPM_P2
2023/04/16 00:00:02;;;;;;;9.10;2.80;;;;;;;8.58;100.00;102037.56;5062193;28;20045;-66
2023/04/16 00:02:37;;;;;;;12.57;2.90;;;;;;;8.58;100.00;102040.25;5061948;28;20045;-65
2023/04/16 00:05:06;;;;;;;12.80;3.13;;;;;;;8.57;100.00;102038.63;5043576;28;20100;-67
2023/04/16 00:07:34;;;;;;;12.80;3.30;;;;;;;8.55;100.00;102044.25;5034589;28;20053;-65
2023/04/16 00:10:01;;;;;;;11.23;3.03;;;;;;;8.52;100.00;102039.28;5051548;28;20052;-65
2023/04/16 00:12:29;;;;;;;11.88;3.00;;;;;;;8.50;100.00;102039.50;5055825;28;20045;-66
2023/04/16 00:14:57;;;;;;;9.68;3.15;;;;;;;8.52;100.00;102040.13;5040100;28;20055;-65
2023/04/16 00:17:24;;;;;;;15.30;3.55;;;;;;;8.51;100.00;102038.47;5035548;28;20053;-64
2023/04/16 00:19:52;;;;;;;15.48;3.13;;;;;;;8.51;100.00;102043.91;5049594;28;20045;-65
2023/04/16 00:22:20;;;;;;;12.75;3.17;;;;;;;8.48;100.00;102044.31;5054651;28;20123;-66
2023/04/16 00:24:48;;;;;;;12.63;3.33;;;;;;;8.43;100.00;102041.44;5045648;28;20056;-64
2023/04/16 00:27:15;;;;;;;12.02;3.33;;;;;;;8.42;100.00;102031.66;5068455;28;20063;-66
2023/04/16 00:29:43;;;;;;;9.98;3.00;;;;;;;8.42;100.00;102044.38;5038158;28;20069;-65
2023/04/16 00:32:11;;;;;;;14.30;3.38;;;;;;;8.40;100.00;102043.81;5035056;28;20049;-66
2023/04/16 00:34:38;;;;;;;14.68;3.55;;;;;;;8.40;100.00;102041.91;5039119;28;20420;-65
2023/04/16 00:37:06;;;;;;;12.25;3.03;;;;;;;8.39;100.00;102039.38;5040339;28;20105;-65
2023/04/16 00:39:34;;;;;;;12.23;3.40;;;;;;;8.38;100.00;102035.00;5026813;28;20059;-66
2023/04/16 00:42:02;;;;;;;12.07;3.20;;;;;;;8.37;100.00;102042.34;5057948;28;20048;-64
2023/04/16 00:44:30;;;;;;;16.83;3.55;;;;;;;8.37;100.00;102039.63;5045301;28;20044;-66
2023/04/16 00:46:58;;;;;;;11.57;3.45;;;;;;;8.38;100.00;102035.84;5023153;28;20058;-64
2023/04/16 00:49:26;;;;;;;13.13;3.20;;;;;;;8.39;100.00;102034.75;5025514;28;20057;-63
2023/04/16 00:51:54;;;;;;;12.13;3.30;;;;;;;8.38;100.00;102032.28;5052555;28;20443;-65
2023/04/16 00:54:23;;;;;;;13.38;3.25;;;;;;;8.38;100.00;102035.84;5022674;28;20058;-65
2023/04/16 00:56:51;;;;;;;15.73;3.67;;;;;;;8.39;100.00;102040.19;5036582;28;20057;-64
2023/04/16 00:59:19;;;;;;;9.52;3.17;;;;;;;8.40;100.00;102033.75;5034743;28;20049;-65
2023/04/16 01:01:47;;;;;;;14.38;3.72;;;;;;;8.39;100.00;102032.06;5034964;28;20124;-65
2023/04/16 01:04:25;;;;;;;13.82;3.35;;;;;;;8.42;100.00;102033.53;5047392;28;20049;-66
2023/04/16 01:06:53;;;;;;;10.82;3.30;;;;;;;8.42;100.00;102028.94;5033175;28;20463;-65
2023/04/16 01:09:20;;;;;;;11.13;3.30;;;;;;;8.41;100.00;102032.69;5050090;28;20059;-65
2023/04/16 01:11:50;;;;;;;12.43;3.55;;;;;;;8.41;100.00;102038.13;5041068;28;20124;-65
2023/04/16 01:14:18;;;;;;;13.80;3.42;;;;;;;8.40;100.00;102031.03;5050152;28;20049;-64
2023/04/16 01:16:45;;;;;;;13.68;3.58;;;;;;;8.34;100.00;102026.47;5053079;28;20042;-65
2023/04/16 01:19:13;;;;;;;8.98;3.05;;;;;;;8.33;100.00;102027.53;5037952;28;20053;-65
2023/04/16 01:21:40;;;;;;;10.45;3.33;;;;;;;8.36;100.00;102032.50;5069298;28;20053;-66
2023/04/16 01:24:09;;;;;;;10.70;3.55;;;;;;;8.38;100.00;102019.53;5044990;28;20140;-65
2023/04/16 01:26:36;;;;;;;12.88;3.65;;;;;;;8.38;100.00;102019.53;5038790;28;20083;-66
2023/04/16 01:29:04;;;;;;;13.63;3.63;;;;;;;8.39;100.00;102023.06;5036782;28;20087;-65
2023/04/16 01:31:32;;;;;;;13.77;3.47;;;;;;;8.41;100.00;102023.72;5037940;28;20128;-65
2023/04/16 01:34:23;;;;;;;11.85;3.50;;;;;;;8.41;100.00;102027.25;5036497;28;20037;-65
2023/04/16 01:36:51;;;;;;;14.38;3.95;;;;;;;8.41;100.00;102029.97;5036473;28;20171;-65
2023/04/16 01:39:18;;;;;;;14.98;4.03;;;;;;;8.42;100.00;102028.94;5057235;28;20055;-65
2023/04/16 01:41:46;;;;;;;11.35;3.58;;;;;;;8.44;100.00;102026.84;5056083;28;20045;-65
2023/04/16 01:44:14;;;;;;;12.65;4.10;;;;;;;8.44;100.00;102029.56;5024607;28;20128;-66
2023/04/16 01:46:43;;;;;;;13.68;3.92;;;;;;;8.42;100.00;102028.94;5037995;28;20072;-65
2023/04/16 01:49:10;;;;;;;10.70;3.95;;;;;;;8.43;100.00;102029.75;5024329;28;20402;-65
2023/04/16 01:51:38;;;;;;;10.68;3.97;;;;;;;8.44;100.00;102042.28;5047790;28;20054;-66
2023/04/16 01:54:06;;;;;;;12.10;3.97;;;;;;;8.44;100.00;102036.84;5041850;28;20049;-65
2023/04/16 01:56:34;;;;;;;12.63;4.45;;;;;;;8.45;100.00;102033.09;5040322;28;20054;-65
2023/04/16 01:59:02;;;;;;;10.13;4.00;;;;;;;8.42;100.00;102028.09;5037700;28;20037;-65
2023/04/16 02:01:36;;;;;;;11.35;4.00;;;;;;;8.43;100.00;102035.19;5021216;28;20481;-66
2023/04/16 02:04:04;;;;;;;11.70;4.20;;;;;;;8.45;100.00;102033.09;5068137;28;20037;-65
2023/04/16 02:06:32;;;;;;;14.68;3.72;;;;;;;8.43;100.00;102036.03;5036596;28;20045;-65
2023/04/16 02:08:59;;;;;;;11.13;3.85;;;;;;;8.44;100.00;102042.28;5037415;28;20124;-65
2023/04/16 02:11:27;;;;;;;12.10;4.18;;;;;;;8.44;100.00;102040.41;5050010;28;20053;-65
2023/04/16 02:13:55;;;;;;;11.82;3.80;;;;;;;8.42;100.00;102041.66;5019225;28;20057;-65
2023/04/16 02:16:24;;;;;;;12.13;4.25;;;;;;;8.41;100.00;102038.13;5068714;28;20045;-65
2023/04/16 02:18:58;;;;;;;9.63;3.90;;;;;;;8.43;100.00;102030.59;5054070;28;20136;-65
2023/04/16 02:21:30;;;;;;;10.73;3.83;;;;;;;8.42;100.00;102038.94;5035479;28;20103;-65
2023/04/16 02:23:58;;;;;;;12.38;4.30;;;;;;;8.39;100.00;102040.19;5019331;28;20045;-66
2023/04/16 02:26:29;;;;;;;12.00;3.90;;;;;;;8.40;100.00;102035.66;5040750;28;20151;-65
2023/04/16 02:29:03;;;;;;;11.43;4.13;;;;;;;8.40;100.00;102036.47;5039344;28;20053;-65
2023/04/16 02:31:38;;;;;;;9.75;3.60;;;;;;;8.39;100.00;102032.06;5036542;28;20075;-64
2023/04/16 02:34:07;;;;;;;12.73;4.22;;;;;;;8.41;100.00;102042.72;5035327;28;20128;-67
2023/04/16 02:36:34;;;;;;;12.88;4.80;;;;;;;8.37;100.00;102034.19;5019533;28;20124;-65
2023/04/16 02:39:02;;;;;;;10.98;3.88;;;;;;;8.33;100.00;102028.34;5021398;28;20056;-66
2023/04/16 02:41:30;;;;;;;10.27;4.25;;;;;;;8.33;100.00;102035.69;5003278;28;20060;-66
2023/04/16 02:43:58;;;;;;;8.68;3.83;;;;;;;8.33;100.00;102035.69;5017858;28;20511;-65
2023/04/16 02:46:27;;;;;;;12.20;4.63;;;;;;;8.33;100.00;102036.50;5036094;28;20053;-67
2023/04/16 02:48:55;;;;;;;10.55;4.38;;;;;;;8.36;100.00;102046.09;5018907;28;20042;-66
2023/04/16 02:51:23;;;;;;;12.45;4.57;;;;;;;8.34;100.00;102040.03;5017765;28;20045;-66
2023/04/16 02:53:51;;;;;;;13.45;4.60;;;;;;;8.34;100.00;102037.31;5050448;28;20052;-66
2023/04/16 02:56:19;;;;;;;12.40;5.07;;;;;;;8.35;100.00;102036.28;5034897;28;20141;-65
2023/04/16 02:58:46;;;;;;;14.10;5.18;;;;;;;8.34;100.00;102037.31;5051518;28;20088;-65
2023/04/16 03:01:14;;;;;;;15.32;5.13;;;;;;;8.36;100.00;102042.53;5034656;28;20053;-65
2023/04/16 03:03:42;;;;;;;13.45;5.35;;;;;;;8.33;100.00;102044.66;5042638;28;20069;-65
2023/04/16 03:06:10;;;;;;;12.48;4.63;;;;;;;8.33;100.00;102035.69;5026478;28;20045;-65
2023/04/16 03:08:38;;;;;;;12.77;4.70;;;;;;;8.35;100.00;102043.59;5036264;28;20125;-65
2023/04/16 03:11:06;;;;;;;11.70;5.07;;;;;;;8.36;100.00;102045.25;5034458;28;20053;-66
2023/04/16 03:13:34;;;;;;;12.50;5.22;;;;;;;8.30;100.00;102047.81;5033845;28;20037;-65
2023/04/16 03:16:02;;;;;;;11.93;5.15;;;;;;;8.31;100.00;102052.19;5034184;28;20061;-66
2023/04/16 03:18:31;;;;;;;13.18;5.25;;;;;;;8.31;100.00;102056.78;5001667;28;20048;-65
2023/04/16 03:20:58;;;;;;;13.10;5.53;;;;;;;8.33;100.00;102049.25;5034171;28;20440;-66
2023/04/16 03:23:27;;;;;;;12.82;5.57;;;;;;;8.35;100.00;102059.91;5034157;28;20105;-66
2023/04/16 03:25:54;;;;;;;12.95;5.30;;;;;;;8.36;100.00;102056.94;5050194;28;20041;-66
2023/04/16 03:28:22;;;;;;;15.25;5.22;;;;;;;8.36;100.00;102062.38;5037709;28;20123;-66
2023/04/16 03:30:53;;;;;;;15.07;5.82;;;;;;;8.37;100.00;102057.78;5037227;28;20064;-65
2023/04/16 03:33:21;;;;;;;14.20;5.88;;;;;;;8.35;100.00;102055.28;5040621;28;20049;-66
2023/04/16 03:35:57;;;;;;;15.30;5.95;;;;;;;8.32;100.00;102055.72;5065202;28;20045;-66
2023/04/16 03:38:27;;;;;;;16.38;6.40;;;;;;;8.33;100.00;102052.78;5033673;28;20045;-65
2023/04/16 03:40:57;;;;;;;14.18;6.28;;;;;;;8.32;100.00;102051.16;5034069;28;20050;-65
2023/04/16 03:43:29;;;;;;;15.38;6.63;;;;;;;8.32;100.00;102064.72;5017713;28;20119;-67
2023/04/16 03:45:57;;;;;;;15.88;6.55;;;;;;;8.31;100.00;102056.78;5041637;28;20055;-66
2023/04/16 03:48:24;;;;;;;15.18;5.88;;;;;;;8.32;100.00;102055.72;5053373;28;20045;-65
2023/04/16 03:50:53;;;;;;;17.00;6.80;;;;;;;8.30;100.00;102055.97;5052385;28;20048;-66
2023/04/16 03:53:21;;;;;;;18.55;6.93;;;;;;;8.29;100.00;102058.88;5005128;28;20081;-66
2023/04/16 03:55:50;;;;;;;17.27;7.20;;;;;;;8.22;100.00;102063.53;5036126;28;20064;-65
2023/04/16 03:58:19;;;;;;;19.98;8.32;;;;;;;8.23;100.00;102067.94;5053287;28;20067;-65
2023/04/16 04:00:47;;;;;;;17.45;7.65;;;;;;;8.22;100.00;102071.69;5036446;28;20041;-66
2023/04/16 04:03:17;;;;;;;17.20;7.53;;;;;;;8.20;100.00;102062.94;5032905;28;20041;-66
2023/04/16 04:05:47;;;;;;;19.40;7.50;;;;;;;8.19;100.00;102072.97;5031843;28;20044;-66
2023/04/16 04:08:21;;;;;;;18.02;7.60;;;;;;;8.22;100.00;102066.25;5012841;28;20104;-66
2023/04/16 04:10:49;;;;;;;18.98;7.38;;;;;;;8.25;100.00;102071.25;5013014;28;20124;-65
2023/04/16 04:13:19;;;;;;;16.85;7.80;;;;;;;8.22;100.00;102063.53;5029719;28;20049;-64
2023/04/16 04:15:48;;;;;;;15.75;7.55;;;;;;;8.25;100.00;102076.66;5001753;28;20168;-65
2023/04/16 04:18:16;;;;;;;20.95;8.80;;;;;;;8.26;100.00;102072.91;5048894;28;20110;-65
2023/04/16 04:20:44;;;;;;;19.60;8.32;;;;;;;8.27;100.00;102080.84;5053308;28;20443;-66
2023/04/16 04:23:15;;;;;;;20.95;8.48;;;;;;;8.26;100.00;102084.59;5029779;28;20552;-66
2023/04/16 04:25:44;;;;;;;17.25;7.50;;;;;;;8.27;100.00;102074.56;5046024;28;20045;-65
2023/04/16 04:28:13;;;;;;;20.27;8.00;;;;;;;8.25;100.00;102077.53;5068950;28;20033;-65
2023/04/16 04:30:41;;;;;;;21.75;8.38;;;;;;;8.28;100.00;102066.22;5053724;28;20053;-65
2023/04/16 04:33:09;;;;;;;20.90;8.48;;;;;;;8.28;100.00;102076.25;5002808;28;20060;-64
2023/04/16 04:35:38;;;;;;;21.63;8.98;;;;;;;8.25;100.00;102082.09;5000063;28;20053;-65
2023/04/16 04:38:05;;;;;;;20.77;8.73;;;;;;;8.21;100.00;102075.47;5065070;28;20049;-65
2023/04/16 04:40:34;;;;;;;20.42;8.90;;;;;;;8.20;100.00;102085.50;5021918;28;20104;-59
2023/04/16 04:43:03;;;;;;;23.88;9.30;;;;;;;8.20;100.00;102084.66;5029655;28;20049;-63
2023/04/16 04:45:32;;;;;;;20.95;8.80;;;;;;;8.21;100.00;102086.34;5043359;28;20041;-65
2023/04/16 04:48:00;;;;;;;23.73;9.27;;;;;;;8.20;100.00;102090.09;5018044;28;21821;-64
2023/04/16 04:50:29;;;;;;;18.45;8.25;;;;;;;8.17;100.00;102087.81;5053449;28;20120;-64
2023/04/16 04:52:57;;;;;;;23.15;8.98;;;;;;;8.17;100.00;102088.63;5039504;28;20046;-64
2023/04/16 04:55:25;;;;;;;19.30;8.70;;;;;;;8.16;100.00;102095.13;5073007;28;20045;-65
2023/04/16 04:57:53;;;;;;;19.45;8.93;;;;;;;8.15;100.00;102098.06;5034073;28;20052;-65
2023/04/16 05:00:21;;;;;;;19.50;8.52;;;;;;;8.15;100.00;102090.75;5015932;28;20049;-64
2023/04/16 05:02:53;;;;;;;20.13;8.88;;;;;;;8.17;100.00;102102.22;5026987;28;20045;-65
2023/04/16 05:05:21;;;;;;;15.63;8.32;;;;;;;8.18;100.00;102103.03;5038615;28;20045;-63
2023/04/16 05:07:49;;;;;;;20.90;9.20;;;;;;;8.15;100.00;102104.31;5033011;28;20453;-63
2023/04/16 05:10:17;;;;;;;17.65;8.50;;;;;;;8.17;100.00;102101.38;5015556;28;20140;-65
2023/04/16 05:12:47;;;;;;;17.10;8.85;;;;;;;8.16;100.00;102100.56;5048732;28;20046;-64
2023/04/16 05:15:16;;;;;;;19.80;8.68;;;;;;;8.13;100.00;102100.16;5033591;28;20504;-65
2023/04/16 05:17:43;;;;;;;19.67;8.15;;;;;;;8.12;100.00;102096.63;5035668;28;20096;-64
2023/04/16 05:20:11;;;;;;;17.25;8.38;;;;;;;8.15;100.00;102103.50;5032775;28;20080;-64
2023/04/16 05:22:39;;;;;;;21.05;9.25;;;;;;;8.13;100.00;102113.72;5046711;28;20119;-63
2023/04/16 05:25:07;;;;;;;23.65;8.65;;;;;;;8.13;100.00;102105.59;5051922;28;20045;-64
2023/04/16 05:27:35;;;;;;;18.60;8.65;;;;;;;8.13;100.00;102105.59;5052018;28;20128;-64
2023/04/16 05:30:03;;;;;;;19.83;8.88;;;;;;;8.13;100.00;102106.44;5035499;28;20068;-63
2023/04/16 05:32:31;;;;;;;19.83;8.98;;;;;;;8.10;100.00;102110.44;5035123;28;20390;-64
2023/04/16 05:34:59;;;;;;;25.05;9.50;;;;;;;8.13;100.00;102111.88;5047943;28;20041;-64
2023/04/16 05:37:26;;;;;;;22.55;9.23;;;;;;;8.11;100.00;102120.22;5053251;28;20040;-64
2023/04/16 05:39:54;;;;;;;21.55;9.23;;;;;;;8.14;100.00;102116.25;5052289;28;20484;-63
2023/04/16 05:42:22;;;;;;;19.60;9.02;;;;;;;8.13;100.00;102111.88;5031972;28;20457;-65
2023/04/16 05:44:51;;;;;;;22.00;9.55;;;;;;;8.15;100.00;102120.59;5032088;28;20080;-64
2023/04/16 05:47:19;;;;;;;22.92;10.43;;;;;;;8.17;100.00;102117.69;5044079;28;20048;-64
2023/04/16 05:49:47;;;;;;;21.98;10.13;;;;;;;8.19;100.00;102116.41;5035612;28;20045;-62
2023/04/16 05:52:14;;;;;;;24.65;10.63;;;;;;;8.15;100.00;102120.59;5035597;28;20087;-64
2023/04/16 05:54:42;;;;;;;21.95;10.68;;;;;;;8.15;100.00;102119.78;5033155;28;20053;-63
2023/04/16 05:57:10;;;;;;;25.40;10.90;;;;;;;8.16;100.00;102121.47;5036352;28;20038;-63
2023/04/16 05:59:38;;;;;;;22.70;10.25;;;;;;;8.17;100.00;102123.09;5042240;28;20049;-64
2023/04/16 06:02:06;;;;;;;24.00;10.57;;;;;;;8.20;100.00;102128.09;5053147;28;20064;-64
2023/04/16 06:04:34;;;;;;;23.48;10.70;;;;;;;8.22;100.00;102132.25;5036426;28;20383;-63
2023/04/16 06:07:02;;;;;;;26.73;11.13;;;;;;;8.21;100.00;102135.19;5034895;28;20053;-64
2023/04/16 06:09:30;;;;;;;30.17;11.95;;;;;;;8.19;100.00;102135.41;5035403;28;20144;-64
2023/04/16 06:11:58;;;;;;;25.77;10.57;;;;;;;8.17;100.00;102144.81;5044614;28;20044;-64
2023/04/16 06:14:25;;;;;;;26.13;11.50;;;;;;;8.17;100.00;102133.97;5055214;28;20128;-65
2023/04/16 06:16:53;;;;;;;26.13;11.57;;;;;;;8.19;100.00;102140.00;5072056;28;20084;-64
2023/04/16 06:19:21;;;;;;;25.00;11.63;;;;;;;8.20;100.00;102138.94;5037878;28;20046;-66
2023/04/16 06:21:49;;;;;;;28.73;12.45;;;;;;;8.20;100.00;102136.22;5051060;28;20038;-63
2023/04/16 06:24:17;;;;;;;21.88;10.10;;;;;;;8.20;100.00;102137.09;5045490;28;20132;-66
2023/04/16 06:26:45;;;;;;;23.08;10.75;;;;;;;8.23;100.00;102146.69;5042301;28;20063;-64
2023/04/16 06:29:12;;;;;;;25.52;11.20;;;;;;;8.23;100.00;102143.97;5036026;28;20123;-63
2023/04/16 06:31:40;;;;;;;24.55;11.45;;;;;;;8.23;100.00;102150.22;5036050;28;20045;-63
2023/04/16 06:34:08;;;;;;;27.85;12.45;;;;;;;8.21;100.00;102151.50;5035043;28;20046;-62
2023/04/16 06:36:36;;;;;;;29.10;12.07;;;;;;;8.17;100.00;102155.69;5009985;28;20053;-64
2023/04/16 06:39:04;;;;;;;27.50;12.50;;;;;;;8.15;100.00;102158.59;5035927;28;20048;-63
2023/04/16 06:41:31;;;;;;;25.20;11.73;;;;;;;8.16;100.00;102164.91;5036018;28;20493;-64
2023/04/16 06:43:59;;;;;;;25.85;11.77;;;;;;;8.16;100.00;102165.72;5034647;28;20099;-64
2023/04/16 06:46:27;;;;;;;23.02;11.15;;;;;;;8.19;100.00;102168.00;5036250;28;20049;-63
2023/04/16 06:48:55;;;;;;;24.90;11.32;;;;;;;8.22;100.00;102174.88;5043089;28;20048;-63
2023/04/16 06:51:23;;;;;;;28.83;12.90;;;;;;;8.23;100.00;102176.53;5036804;28;20120;-65
2023/04/16 06:53:51;;;;;;;27.95;12.73;;;;;;;8.20;100.00;102166.97;5033095;28;20049;-65
2023/04/16 06:56:19;;;;;;;25.92;11.80;;;;;;;8.19;100.00;102176.13;5036208;28;20127;-64
2023/04/16 06:58:46;;;;;;;25.10;12.15;;;;;;;8.16;100.00;102179.28;5034413;28;20528;-65
2023/04/16 07:01:14;;;;;;;31.73;13.98;;;;;;;8.20;100.00;102177.81;5038052;28;20049;-64
2023/04/16 07:03:42;;;;;;;29.83;12.68;;;;;;;8.20;100.00;102182.38;5040677;28;20056;-63
2023/04/16 07:06:10;;;;;;;32.05;13.10;;;;;;;8.19;100.00;102181.56;5034272;28;20056;-63
2023/04/16 07:08:38;;;;;;;27.73;12.88;;;;;;;8.20;100.00;102191.38;5034887;28;20073;-63
2023/04/16 07:11:05;;;;;;;26.88;12.45;;;;;;;8.19;100.00;102197.03;5017137;28;20052;-63
2023/04/16 07:13:33;;;;;;;25.88;12.60;;;;;;;8.20;100.00;102191.38;5035479;28;20761;-62
2023/04/16 07:16:01;;;;;;;26.58;12.48;;;;;;;8.19;100.00;102203.28;5048166;28;20048;-64
2023/04/16 07:18:29;;;;;;;20.90;11.65;;;;;;;8.21;100.00;102194.94;5035763;28;20405;-63
2023/04/16 07:20:56;;;;;;;24.10;11.43;;;;;;;8.26;100.00;102197.81;5034832;28;20119;-62
2023/04/16 07:23:24;;;;;;;22.58;11.63;;;;;;;8.27;100.00;102200.31;5034373;28;20045;-64
2023/04/16 07:25:52;;;;;;;26.30;13.15;;;;;;;8.29;100.00;102200.09;5033699;28;20096;-64
2023/04/16 07:28:20;;;;;;;22.83;11.50;;;;;;;8.33;100.00;102204.03;5054670;28;20405;-64
2023/04/16 07:30:48;;;;;;;24.02;12.00;;;;;;;8.33;100.00;102204.03;5038333;28;20046;-63
2023/04/16 07:33:15;;;;;;;22.77;11.55;;;;;;;8.36;100.00;102206.31;5018195;28;20045;-63
2023/04/16 07:35:44;;;;;;;27.85;11.55;;;;;;;8.39;100.00;102205.88;5034577;28;20042;-63
2023/04/16 07:38:11;;;;;;;22.30;11.73;;;;;;;8.41;100.00;102217.38;5033755;28;20042;-65
2023/04/16 07:40:39;;;;;;;24.73;11.65;;;;;;;8.41;100.00;102217.38;5030541;28;20045;-64
2023/04/16 07:43:07;;;;;;;26.20;11.48;;;;;;;8.40;100.00;102223.88;5017739;28;20076;-64
2023/04/16 07:45:35;;;;;;;27.20;12.07;;;;;;;8.39;100.00;102224.88;5034124;28;20092;-63
2023/04/16 07:48:02;;;;;;;18.95;11.38;;;;;;;8.36;100.00;102221.78;5033734;28;20486;-62
2023/04/16 07:50:30;;;;;;;23.67;11.85;;;;;;;8.38;100.00;102227.81;5032896;28;20120;-64
2023/04/16 07:52:58;;;;;;;24.73;12.13;;;;;;;8.39;100.00;102235.75;5033862;28;20052;-64
2023/04/16 07:55:25;;;;;;;25.60;12.18;;;;;;;8.37;100.00;102232.44;5035036;28;20057;-64
2023/04/16 07:57:53;;;;;;;19.73;11.13;;;;;;;8.37;100.00;102229.72;5034820;28;20073;-64
2023/04/16 08:00:21;;;;;;;26.27;11.60;;;;;;;8.40;100.00;102237.44;5033933;28;20052;-65
2023/04/16 08:02:49;;;;;;;25.73;11.85;;;;;;;8.44;100.00;102238.69;5034563;28;20496;-64
2023/04/16 08:05:17;;;;;;;24.48;11.35;;;;;;;8.49;100.00;102240.72;5035430;28;20048;-63
2023/04/16 08:07:44;;;;;;;24.17;11.75;;;;;;;8.51;100.00;102247.63;5033964;28;20049;-64
2023/04/16 08:10:12;;;;;;;24.10;12.05;;;;;;;8.55;100.00;102244.47;5034302;28;20104;-64
2023/04/16 08:12:40;;;;;;;25.13;13.13;;;;;;;8.53;100.00;102245.50;5034143;28;20042;-65
2023/04/16 08:15:08;;;;;;;26.63;12.27;;;;;;;8.53;100.00;102256.38;5034359;28;20092;-63
2023/04/16 08:17:36;;;;;;;23.92;12.77;;;;;;;8.50;100.00;102259.53;5032899;28;20042;-63
2023/04/16 08:20:05;;;;;;;24.90;12.80;;;;;;;8.47;100.00;102262.69;5032301;28;20049;-63
2023/04/16 08:22:33;;;;;;;22.00;13.35;;;;;;;8.49;100.00;102252.44;5033926;28;20057;-64
2023/04/16 08:25:01;;;;;;;25.52;12.20;;;;;;;8.51;100.00;102263.94;5032888;28;20503;-63
2023/04/16 08:27:29;;;;;;;26.48;13.48;;;;;;;8.52;100.00;102262.03;5032703;28;20545;-63
2023/04/16 08:29:57;;;;;;;29.00;14.27;;;;;;;8.52;100.00;102260.16;5032547;28;20053;-64
2023/04/16 08:32:26;;;;;;;23.38;12.85;;;;;;;8.54;100.00;102254.50;5032603;28;20124;-64
2023/04/16 08:34:53;;;;;;;30.10;14.15;;;;;;;8.55;100.00;102266.19;5034147;28;20045;-62
2023/04/16 08:37:21;;;;;;;26.95;13.20;;;;;;;8.55;100.00;102263.47;5034242;28;20045;-63
2023/04/16 08:39:49;;;;;;;26.20;14.20;;;;;;;8.58;100.00;102266.56;5037112;28;20041;-63
2023/04/16 08:42:29;;;;;;;28.52;14.65;;;;;;;8.61;100.00;102266.16;5023532;28;20037;-65
2023/04/16 08:45:17;;;;;;;23.50;12.35;;;;;;;8.62;100.00;102265.09;5037731;28;20127;-64
2023/04/16 08:47:47;;;;;;;29.52;13.32;;;;;;;8.64;100.00;102267.59;5038899;28;20041;-64
2023/04/16 08:50:25;;;;;;;24.27;13.73;;;;;;;8.67;100.00;102269.88;5035317;28;20479;-62
2023/04/16 08:53:07;;;;;;;28.85;14.38;;;;;;;8.70;100.00;102277.56;5036003;28;20056;-62
2023/04/16 08:55:48;;;;;;;27.23;14.98;;;;;;;8.70;100.00;102280.28;5037026;28;20096;-62
2023/04/16 08:58:19;;;;;;;25.88;15.32;;;;;;;8.71;100.00;102279.25;5010585;28;20106;-62
2023/04/16 09:00:47;;;;;;;28.08;15.65;;;;;;;8.73;100.00;102286.13;5040236;28;20116;-63
2023/04/16 09:03:15;;;;;;;25.73;14.95;;;;;;;8.70;100.00;102285.72;5034670;28;20640;-63
2023/04/16 09:05:43;;;;;;;28.63;16.33;;;;;;;8.68;100.00;102282.41;5033164;28;20103;-64
2023/04/16 09:08:11;;;;;;;24.90;14.93;;;;;;;8.68;100.00;102287.81;5033198;28;20129;-64
2023/04/16 09:10:39;;;;;;;30.30;16.98;;;;;;;8.67;100.00;102299.75;5032708;28;20073;-64
2023/04/16 09:13:08;;;;;;;30.48;16.75;;;;;;;8.68;100.00;102293.25;5015797;28;20099;-64
2023/04/16 09:15:36;;;;;;;26.83;16.20;;;;;;;8.70;100.00;102289.28;5031949;28;20083;-62
2023/04/16 09:18:03;;;;;;;29.48;16.63;;;;;;;8.74;100.00;102292.41;5031746;28;20128;-64
2023/04/16 09:20:31;;;;;;;26.08;16.33;;;;;;;8.76;100.00;102298.47;5031740;28;20041;-62
2023/04/16 09:22:59;;;;;;;30.42;16.85;;;;;;;8.77;100.00;102302.00;5033281;28;20057;-64
2023/04/16 09:25:27;;;;;;;29.92;17.60;;;;;;;8.72;100.00;102297.22;5031725;28;20402;-64
2023/04/16 09:27:54;;;;;;;25.92;15.82;;;;;;;8.73;100.00;102301.59;5048480;28;20049;-64
2023/04/16 09:30:24;;;;;;;29.77;17.67;;;;;;;8.78;100.00;102301.78;5033541;28;20045;-65
2023/04/16 09:33:12;;;;;;;33.65;17.15;;;;;;;8.79;100.00;102302.63;5019933;28;20059;-63
2023/04/16 09:35:50;;;;;;;33.60;18.50;;;;;;;8.80;100.00;102301.56;5036025;28;20049;-64
2023/04/16 09:38:19;;;;;;;33.08;17.88;;;;;;;8.77;100.00;102302.81;5035840;28;20400;-63
2023/04/16 09:40:46;;;;;;;31.83;18.15;;;;;;;8.80;100.00;102305.09;5020043;28;20527;-64
2023/04/16 09:43:16;;;;;;;30.20;17.58;;;;;;;8.86;100.00;102315.09;5019365;28;20041;-64
2023/04/16 09:45:52;;;;;;;33.47;17.27;;;;;;;8.87;100.00;102311.31;5037110;28;20139;-63
2023/04/16 09:48:28;;;;;;;33.83;17.73;;;;;;;8.89;100.00;102311.94;5035492;28;20100;-63
2023/04/16 09:50:57;;;;;;;28.48;16.70;;;;;;;8.92;100.00;102316.09;5036857;28;20111;-63
2023/04/16 09:53:29;;;;;;;29.67;17.10;;;;;;;8.95;100.00;102315.69;5003213;28;20103;-63
2023/04/16 09:55:58;;;;;;;34.42;18.00;;;;;;;8.97;100.00;102310.81;5035429;28;20065;-64
2023/04/16 09:58:26;;;;;;;34.03;17.38;;;;;;;8.98;100.00;102317.94;5018938;28;20045;-64
2023/04/16 10:01:12;;;;;;;26.10;16.23;;;;;;;8.99;100.00;102319.59;5035408;28;20107;-63
2023/04/16 10:03:40;;;;;;;31.48;16.63;;;;;;;9.00;100.00;102315.84;5035616;28;20153;-64
2023/04/16 10:06:19;;;;;;;30.73;17.50;;;;;;;9.03;100.00;102325.44;5036301;28;20049;-63
2023/04/16 10:08:51;;;;;;;29.55;17.52;;;;;;;9.05;100.00;102323.34;5034840;28;20056;-63
2023/04/16 10:11:20;;;;;;;33.13;17.95;;;;;;;9.07;100.00;102324.78;5036702;28;20041;-63
2023/04/16 10:13:48;;;;;;;32.67;18.63;;;;;;;9.08;100.00;102331.06;5036751;28;20053;-63
2023/04/16 10:16:16;;;;;;;31.63;17.50;;;;;;;9.08;100.00;102331.06;5018691;28;20470;-65
2023/04/16 10:18:46;;;;;;;31.40;17.88;;;;;;;9.11;100.00;102326.00;5036836;28;20553;-65
2023/04/16 10:21:15;;;;;;;31.70;17.83;;;;;;;9.14;100.00;102325.56;5034510;28;20061;-64
2023/04/16 10:23:43;;;;;;;33.65;18.00;;;;;;;9.18;100.00;102317.78;5036316;28;20715;-64
2023/04/16 10:26:11;;;;;;;31.75;18.15;;;;;;;9.21;100.00;102325.50;5003657;28;20053;-63
2023/04/16 10:28:39;;;;;;;30.83;18.77;;;;;;;9.23;100.00;102326.09;5035207;28;20037;-62
2023/04/16 10:31:09;;;;;;;34.10;17.90;;;;;;;9.25;100.00;102324.00;5036744;28;20056;-62
2023/04/16 10:33:40;;;;;;;33.63;19.48;;;;;;;9.24;100.00;102324.25;5037953;28;20401;-64
2023/04/16 10:36:15;;;;;;;26.65;17.35;;;;;;;9.25;100.00;102326.72;5035358;28;20053;-63
2023/04/16 10:38:48;;;;;;;36.20;18.52;;;;;;;9.26;100.00;102333.84;5020084;28;20049;-66
2023/04/16 10:41:18;;;;;;;28.88;17.77;;;;;;;9.30;100.00;102323.34;5036285;28;20489;-67
2023/04/16 10:43:49;;;;;;;34.40;18.67;;;;;;;9.32;100.00;102335.66;5018097;28;20038;-62
2023/04/16 10:46:32;;;;;;;31.27;18.60;;;;;;;9.31;100.00;102325.84;5034851;28;20046;-62
2023/04/16 10:49:02;;;;;;;28.55;17.45;;;;;;;9.34;100.00;102330.00;5016342;28;20099;-64
2023/04/16 10:51:34;;;;;;;27.23;17.25;;;;;;;9.37;100.00;102324.94;5015072;28;20074;-64
2023/04/16 10:54:07;;;;;;;28.90;16.95;;;;;;;9.43;100.00;102328.69;5016249;28;20115;-64
2023/04/16 10:56:35;;;;;;;28.95;17.40;;;;;;;9.47;100.00;102323.59;5017894;28;20058;-62
2023/04/16 10:59:05;;;;;;;29.52;17.08;;;;;;;9.48;100.00;102331.56;5034386;28;20084;-62
2023/04/16 11:01:42;;;;;;;29.20;17.38;;;;;;;9.52;100.00;102323.75;5035027;28;20497;-65
2023/04/16 11:04:19;;;;;;;25.83;16.63;;;;;;;9.54;100.00;102324.38;5036157;28;20048;-64
2023/04/16 11:07:10;;;;;;;31.45;17.75;;;;;;;9.55;100.00;102328.78;5035337;28;20053;-64
2023/04/16 11:09:53;;;;;;;31.92;18.30;;;;;;;9.57;100.00;102329.34;5031879;28;20464;-63
2023/04/16 11:12:26;;;;;;;29.75;17.40;;;;;;;9.58;100.00;102331.03;5035112;28;20132;-64
2023/04/16 11:15:01;;;;;;;31.50;17.25;;;;;;;9.58;100.00;102325.59;5034215;28;20112;-63
2023/04/16 11:17:35;;;;;;;30.67;17.67;;;;;;;9.58;100.00;102320.16;5050891;28;20052;-64
2023/04/16 11:20:04;;;;;;;31.85;16.92;;;;;;;9.59;100.00;102324.53;5034475;28;20049;-65
2023/04/16 11:22:48;;;;;;;32.78;18.45;;;;;;;9.59;100.00;102321.81;5042916;28;20033;-63